Time;durP1;ratioP1;P1;durP2;ratioP2;P2;SDS_P1;SDS_P2;PMS_P1;PMS_P2;Temp;Humidity;BMP_temperature;BMP_pressure;BME280_temperature;BME280_humidity;BME280_pressure;Samples;Min_cycle;Max_cycle;Signal;HPM_P1;HPM_P2
2023/04/26 00:00:12;;;;;;;;;;;;;;;3.79;100.00;101953.59;5132144;27;20382;-37
2023/04/26 00:02:38;;;;;;;5.78;2.83;;;;;;;3.68;100.00;101956.56;5130694;27;19915;-37
2023/04/26 00:05:06;;;;;;;7.63;3.30;;;;;;;3.60;100.00;101957.31;5131162;27;20038;-35
2023/04/26 00:07:32;;;;;;;8.45;3.13;;;;;;;3.53;100.00;101943.75;5131327;27;20072;-36
2023/04/26 00:09:58;;;;;;;7.45;3.35;;;;;;;3.53;100.00;101948.28;5130807;27;20027;-36
2023/04/26 00:12:23;;;;;;;5.20;3.25;;;;;;;3.58;100.00;101949.47;5121869;27;20069;-36
2023/04/26 00:14:49;;;;;;;6.38;3.47;;;;;;;3.56;100.00;101953.28;5117954;27;20110;-35
2023/04/26 00:17:14;;;;;;;5.80;3.20;;;;;;;3.55;100.00;101949.78;5117868;28;20034;-36
2023/04/26 00:19:40;;;;;;;6.00;3.10;;;;;;;3.50;100.00;101951.25;5116942;28;20027;-36
2023/04/26 00:22:05;;;;;;;4.67;3.23;;;;;;;3.47;100.00;101949.75;5116849;28;20019;-36
2023/04/26 00:24:31;;;;;;;8.37;3.43;;;;;;;3.49;100.00;101950.41;5117700;28;20463;-36
2023/04/26 00:26:56;;;;;;;5.43;3.28;;;;;;;3.46;100.00;101947.22;5116498;28;20019;-36
2023/04/26 00:29:22;;;;;;;6.55;3.40;;;;;;;3.45;100.00;101950.88;5116502;28;20099;-36
2023/04/26 00:31:47;;;;;;;7.67;4.07;;;;;;;3.32;100.00;101936.13;5117046;28;20027;-36
2023/04/26 00:34:12;;;;;;;4.47;3.10;;;;;;;3.42;100.00;101948.53;5116972;28;20447;-36
2023/04/26 00:36:38;;;;;;;6.63;3.23;;;;;;;3.28;100.00;101948.13;5116611;28;20076;-36
2023/04/26 00:39:03;;;;;;;6.53;3.13;;;;;;;3.28;100.00;101944.59;5116571;28;20034;-36
2023/04/26 00:41:29;;;;;;;8.37;3.57;;;;;;;3.31;100.00;101950.44;5116866;28;20023;-36
2023/04/26 00:43:54;;;;;;;5.90;3.33;;;;;;;3.27;100.00;101950.91;5117006;28;20023;-36
2023/04/26 00:46:21;;;;;;;6.13;3.60;;;;;;;3.21;100.00;101955.06;5116190;27;20020;-36
2023/04/26 00:48:47;;;;;;;5.60;3.25;;;;;;;3.21;100.00;101944.38;5116102;28;20110;-36
2023/04/26 00:51:13;;;;;;;7.70;3.95;;;;;;;3.12;100.00;101929.25;5116645;28;20498;-36
2023/04/26 00:53:39;;;;;;;8.80;4.15;;;;;;;3.09;100.00;101929.59;5115986;28;20540;-36
2023/04/26 00:56:09;;;;;;;8.18;3.83;;;;;;;3.15;100.00;101944.16;5116542;28;20030;-36
2023/04/26 00:58:36;;;;;;;5.85;3.83;;;;;;;3.08;100.00;101950.13;5116150;28;20073;-36
2023/04/26 01:01:01;;;;;;;6.82;4.20;;;;;;;3.08;100.00;101950.13;5116171;28;20059;-36
2023/04/26 01:03:27;;;;;;;6.80;3.80;;;;;;;3.06;100.00;101949.44;5115810;28;20023;-36
2023/04/26 01:05:52;;;;;;;6.28;3.70;;;;;;;3.12;100.00;101950.63;5115864;27;20245;-36
2023/04/26 01:08:19;;;;;;;6.47;3.47;;;;;;;3.05;100.00;101936.22;5116353;28;20139;-36
2023/04/26 01:10:47;;;;;;;5.78;3.85;;;;;;;3.07;100.00;101942.25;5116251;28;20023;-36
2023/04/26 01:13:13;;;;;;;9.20;4.45;;;;;;;3.00;100.00;101939.38;5115862;27;20063;-36
2023/04/26 01:15:45;;;;;;;6.95;4.05;;;;;;;3.10;100.00;101958.00;5115561;28;20070;-36
2023/04/26 01:18:11;;;;;;;7.63;4.35;;;;;;;3.09;100.00;101950.97;5115891;28;20020;-36
2023/04/26 01:20:36;;;;;;;6.22;4.30;;;;;;;3.00;100.00;101943.88;5115402;28;20467;-36
2023/04/26 01:23:02;;;;;;;8.70;4.95;;;;;;;3.05;100.00;101954.94;5114999;28;20031;-36
2023/04/26 01:25:27;;;;;;;7.28;4.03;;;;;;;2.87;100.00;101927.41;5116165;28;20024;-36
2023/04/26 01:27:53;;;;;;;5.82;4.25;;;;;;;2.94;100.00;101955.19;5115657;28;20020;-36
2023/04/26 01:30:18;;;;;;;7.70;4.20;;;;;;;2.95;100.00;101952.34;5115861;28;20145;-36
2023/04/26 01:32:43;;;;;;;7.30;4.03;;;;;;;2.90;100.00;101946.63;5115608;28;20073;-36
2023/04/26 01:35:09;;;;;;;5.40;4.10;;;;;;;2.86;100.00;101949.75;5115888;28;20112;-36
2023/04/26 01:37:34;;;;;;;9.80;4.80;;;;;;;2.78;100.00;101947.84;5115157;28;20024;-36
2023/04/26 01:40:00;;;;;;;7.83;4.03;;;;;;;2.81;100.00;101947.56;5115845;28;20109;-36
2023/04/26 01:42:25;;;;;;;8.82;4.20;;;;;;;2.80;100.00;101957.41;5115301;28;20049;-36
2023/04/26 01:44:51;;;;;;;9.53;4.50;;;;;;;2.71;100.00;101955.63;5115600;28;20027;-36
2023/04/26 01:47:16;;;;;;;7.20;4.40;;;;;;;2.70;100.00;101953.97;5115013;27;20054;-36
2023/04/26 01:49:41;;;;;;;7.13;4.40;;;;;;;2.72;100.00;101954.63;5115218;28;20023;-36
2023/04/26 01:52:07;;;;;;;9.03;4.30;;;;;;;2.66;100.00;101949.91;5114823;28;20051;-36
2023/04/26 01:54:32;;;;;;;6.65;4.47;;;;;;;2.63;100.00;101958.22;5114797;28;20027;-36
2023/04/26 01:56:58;;;;;;;8.23;4.47;;;;;;;2.56;100.00;101955.31;5115123;28;20016;-36
2023/04/26 01:59:23;;;;;;;7.60;4.53;;;;;;;2.51;100.00;101952.28;5115012;28;20257;-35
2023/04/26 02:01:48;;;;;;;7.40;4.03;;;;;;;2.49;100.00;101964.09;5115241;28;20050;-36
2023/04/26 02:04:14;;;;;;;11.37;5.37;;;;;;;2.49;100.00;101956.94;5114917;28;20080;-36
2023/04/26 02:06:41;;;;;;;7.83;4.27;;;;;;;2.50;100.00;101957.78;5115201;27;20015;-36
2023/04/26 02:09:08;;;;;;;5.03;3.53;;;;;;;2.46;100.00;101959.91;5115623;28;20124;-36
2023/04/26 02:11:34;;;;;;;5.60;4.07;;;;;;;2.40;100.00;101952.50;5115354;28;20062;-36
2023/04/26 02:13:59;;;;;;;8.10;4.20;;;;;;;2.44;100.00;101961.03;5115279;28;20103;-36
2023/04/26 02:16:25;;;;;;;7.03;4.30;;;;;;;2.42;100.00;101955.00;5114532;28;20576;-36
2023/04/26 02:18:52;;;;;;;8.95;4.28;;;;;;;2.39;100.00;101958.84;5114638;28;20034;-36
2023/04/26 02:21:17;;;;;;;;;;;;;;;2.49;100.00;101954.28;5115845;28;20034;-36
2023/04/26 02:23:43;;;;;;;6.05;3.92;;;;;;;2.29;100.00;101947.34;5114283;28;20266;-36
2023/04/26 02:26:08;;;;;;;6.20;4.70;;;;;;;2.38;100.00;101949.13;5114304;28;20111;-36
2023/04/26 02:28:34;;;;;;;11.80;4.50;;;;;;;2.37;100.00;101951.94;5114840;28;20019;-36
2023/04/26 02:31:01;;;;;;;6.00;4.03;;;;;;;2.23;100.00;101938.13;5114475;28;20023;-36
2023/04/26 02:33:26;;;;;;;6.90;4.80;;;;;;;2.30;100.00;101941.88;5114435;28;20043;-36
2023/04/26 02:35:52;;;;;;;7.80;5.20;;;;;;;2.29;100.00;101952.69;5114484;28;20019;-36
2023/04/26 02:38:17;;;;;;;7.10;4.17;;;;;;;2.26;100.00;101948.50;5114866;28;20405;-36
2023/04/26 02:40:42;;;;;;;8.57;4.90;;;;;;;2.25;100.00;101938.81;5115115;28;20111;-36
2023/04/26 02:43:09;;;;;;;7.13;4.00;;;;;;;2.24;100.00;101947.78;5114087;28;20456;-35
2023/04/26 02:45:40;;;;;;;6.28;3.92;;;;;;;2.22;100.00;101951.63;5114269;28;20019;-36
2023/04/26 02:48:05;;;;;;;8.35;4.30;;;;;;;2.22;100.00;101940.94;5114562;28;20022;-35
2023/04/26 02:50:31;;;;;;;7.63;3.90;;;;;;;2.18;100.00;101935.06;5114546;28;20351;-36
2023/04/26 02:52:56;;;;;;;8.00;4.97;;;;;;;2.14;100.00;101928.34;5113937;28;20020;-36
2023/04/26 02:55:22;;;;;;;6.33;4.00;;;;;;;2.19;100.00;101939.41;5114199;28;20068;-36
2023/04/26 02:57:47;;;;;;;5.85;4.22;;;;;;;2.21;100.00;101936.59;5113876;28;20019;-35
2023/04/26 03:00:12;;;;;;;8.40;4.17;;;;;;;2.14;100.00;101938.16;5114073;28;20683;-35
2023/04/26 03:02:38;;;;;;;6.53;4.20;;;;;;;2.11;100.00;101935.81;5113787;28;20055;-36
2023/04/26 03:05:03;;;;;;;6.53;4.28;;;;;;;2.04;100.00;101924.88;5114637;28;20020;-35
2023/04/26 03:07:30;;;;;;;8.68;4.65;;;;;;;2.06;100.00;101928.25;5114028;28;20024;-36
2023/04/26 03:09:56;;;;;;;9.43;4.72;;;;;;;2.01;100.00;101933.19;5114332;28;20103;-36
2023/04/26 03:12:21;;;;;;;;;;;;;;;2.16;100.00;101926.38;5114178;28;20022;-36
2023/04/26 03:14:47;;;;;;;7.93;4.33;;;;;;;2.02;100.00;101934.88;5114302;28;19908;-36
2023/04/26 03:17:12;;;;;;;9.17;4.73;;;;;;;2.01;100.00;101927.88;5113703;28;20289;-35
2023/04/26 03:19:37;;;;;;;5.93;4.03;;;;;;;2.00;100.00;101936.84;5113620;28;20019;-35
2023/04/26 03:22:03;;;;;;;6.87;4.23;;;;;;;1.94;100.00;101930.25;5114793;28;20049;-36
2023/04/26 03:24:28;;;;;;;6.67;4.83;;;;;;;1.91;100.00;101932.41;5114249;28;20016;-36
2023/04/26 03:26:54;;;;;;;6.50;4.70;;;;;;;1.89;100.00;101929.03;5114400;28;20367;-37
2023/04/26 03:29:19;;;;;;;10.60;5.05;;;;;;;1.83;100.00;101930.47;5113555;28;20040;-35
2023/04/26 03:31:44;;;;;;;6.90;4.60;;;;;;;1.83;100.00;101934.97;5114145;28;20417;-35
2023/04/26 03:34:10;;;;;;;10.03;4.57;;;;;;;1.74;100.00;101921.50;5113874;28;20394;-35
2023/04/26 03:36:35;;;;;;;8.38;4.45;;;;;;;1.79;100.00;101934.41;5113795;28;20023;-36
2023/04/26 03:39:01;;;;;;;8.13;4.27;;;;;;;1.84;100.00;101926.81;5113536;28;20068;-36
2023/04/26 03:41:26;;;;;;;7.53;5.23;;;;;;;1.70;100.00;101909.47;5113688;28;20486;-35
2023/04/26 03:43:51;;;;;;;7.13;4.63;;;;;;;1.82;100.00;101922.63;5113335;28;20106;-35
2023/04/26 03:46:17;;;;;;;6.50;4.77;;;;;;;1.77;100.00;101921.22;5113702;28;20023;-35
2023/04/26 03:48:42;;;;;;;8.33;5.03;;;;;;;1.78;100.00;101917.56;5117866;28;20035;-35
2023/04/26 03:51:07;;;;;;;8.17;5.20;;;;;;;1.77;100.00;101925.72;5118417;28;20410;-36
2023/04/26 03:53:33;;;;;;;8.00;4.87;;;;;;;1.75;100.00;101927.69;5117809;28;20039;-36
2023/04/26 03:55:58;;;;;;;6.90;4.60;;;;;;;1.63;100.00;101907.53;5117554;28;20043;-35
2023/04/26 03:58:24;;;;;;;8.30;5.27;;;;;;;1.66;100.00;101932.09;5117351;28;20028;-36
2023/04/26 04:00:50;;;;;;;7.90;5.55;;;;;;;1.69;100.00;101926.44;5117936;28;20110;-35
2023/04/26 04:03:15;;;;;;;8.80;5.45;;;;;;;1.69;100.00;101928.28;5118079;28;20103;-35
2023/04/26 04:05:41;;;;;;;5.93;4.83;;;;;;;1.71;100.00;101937.81;5117485;28;20027;-35
2023/04/26 04:08:06;;;;;;;7.60;5.73;;;;;;;1.69;100.00;101930.94;5117494;28;20016;-35
2023/04/26 04:10:31;;;;;;;8.47;5.23;;;;;;;1.67;100.00;101914.25;5117366;28;20057;-35
2023/04/26 04:12:57;;;;;;;8.30;5.30;;;;;;;1.71;100.00;101916.50;5117343;27;20023;-35
2023/04/26 04:15:22;;;;;;;8.27;5.17;;;;;;;1.64;100.00;101926.06;5116815;28;20011;-35
2023/04/26 04:17:47;;;;;;;6.53;5.10;;;;;;;1.51;100.00;101904.19;5117290;28;20076;-35
2023/04/26 04:20:13;;;;;;;5.50;4.97;;;;;;;1.59;100.00;101920.31;5117176;28;20606;-35
2023/04/26 04:22:38;;;;;;;8.77;6.17;;;;;;;1.60;100.00;101924.66;5117270;28;20015;-35
2023/04/26 04:25:06;;;;;;;8.90;6.30;;;;;;;1.61;100.00;101930.81;5116942;28;20027;-35
2023/04/26 04:27:31;;;;;;;9.13;5.90;;;;;;;1.61;100.00;101928.16;5117102;28;20028;-35
2023/04/26 04:29:56;;;;;;;9.35;6.43;;;;;;;1.54;100.00;101911.91;5117358;27;20028;-35
2023/04/26 04:32:22;;;;;;;9.10;6.13;;;;;;;1.59;100.00;101911.47;5116807;27;20028;-35
2023/04/26 04:34:49;;;;;;;8.68;6.22;;;;;;;1.59;100.00;101919.47;5117328;28;20460;-36
2023/04/26 04:37:14;;;;;;;10.10;6.07;;;;;;;1.60;100.00;101939.81;5116961;28;20024;-35
2023/04/26 04:39:40;;;;;;;7.87;5.93;;;;;;;1.63;100.00;101942.19;5116464;28;20038;-36
2023/04/26 04:42:05;;;;;;;9.23;5.75;;;;;;;1.60;100.00;101931.81;5116837;28;20023;-35
2023/04/26 04:44:31;;;;;;;7.10;5.37;;;;;;;1.58;100.00;101931.13;5116860;28;20026;-36
2023/04/26 04:46:57;;;;;;;10.18;6.28;;;;;;;1.62;100.00;101941.38;5116786;28;20016;-36
2023/04/26 04:49:23;;;;;;;11.18;6.20;;;;;;;1.60;100.00;101938.00;5116622;28;20084;-36
2023/04/26 04:51:49;;;;;;;8.38;6.03;;;;;;;1.53;100.00;101928.91;5116069;28;20094;-36
2023/04/26 04:54:17;;;;;;;9.18;5.72;;;;;;;1.74;100.00;101947.34;5116574;28;20099;-36
2023/04/26 04:56:43;;;;;;;10.40;6.60;;;;;;;1.73;100.00;101943.84;5116268;28;20022;-36
2023/04/26 04:59:09;;;;;;;10.35;7.22;;;;;;;1.86;100.00;101950.69;5115812;28;20361;-36
2023/04/26 05:01:38;;;;;;;9.68;6.45;;;;;;;1.84;100.00;101953.47;5116261;28;20066;-36
2023/04/26 05:04:05;;;;;;;10.77;6.10;;;;;;;1.96;100.00;101952.31;5116342;28;20059;-36
2023/04/26 05:06:31;;;;;;;8.27;6.60;;;;;;;2.09;100.00;101957.28;5116643;28;20077;-36
2023/04/26 05:08:57;;;;;;;10.32;6.90;;;;;;;2.24;100.00;101961.13;5116292;28;20027;-36
2023/04/26 05:11:22;;;;;;;10.43;6.65;;;;;;;2.26;100.00;101942.31;5116572;27;20039;-36
2023/04/26 05:13:48;;;;;;;8.70;6.68;;;;;;;2.40;100.00;101949.81;5114657;28;20034;-36
2023/04/26 05:16:14;;;;;;;8.93;5.93;;;;;;;2.63;100.00;101954.72;5115898;28;20020;-36
2023/04/26 05:18:39;;;;;;;8.67;6.33;;;;;;;2.62;100.00;101958.38;5116375;28;20047;-36
2023/04/26 05:21:05;;;;;;;8.18;6.63;;;;;;;2.71;100.00;101952.97;5115779;28;20733;-36
2023/04/26 05:23:30;;;;;;;11.23;7.00;;;;;;;2.70;100.00;101961.16;5114492;28;20106;-36
2023/04/26 05:26:00;;;;;;;10.40;7.57;;;;;;;2.74;100.00;101941.16;5115793;28;20048;-36
2023/04/26 05:28:25;;;;;;;10.63;6.93;;;;;;;2.97;100.00;101963.72;5116395;28;20031;-36
2023/04/26 05:30:50;;;;;;;10.07;6.70;;;;;;;3.05;100.00;101954.94;5115835;28;20027;-36
2023/04/26 05:33:16;;;;;;;7.17;6.40;;;;;;;3.16;100.00;101962.72;5115209;28;20062;-36
2023/04/26 05:35:41;;;;;;;7.30;5.83;;;;;;;3.15;100.00;101949.50;5115802;28;20056;-36
2023/04/26 05:38:06;;;;;;;8.17;6.23;;;;;;;3.14;100.00;101959.38;5115685;28;20028;-36
2023/04/26 05:40:32;;;;;;;10.63;6.43;;;;;;;2.98;100.00;101932.53;5115886;28;20024;-36
2023/04/26 05:42:57;;;;;;;10.67;6.30;;;;;;;3.10;100.00;101948.13;5115853;28;20401;-36
2023/04/26 05:45:22;;;;;;;8.33;6.43;;;;;;;3.18;100.00;101965.25;5115297;28;20024;-36
2023/04/26 05:47:48;;;;;;;8.45;6.25;;;;;;;3.18;100.00;101965.25;5115246;28;20024;-36
2023/04/26 05:50:14;;;;;;;8.02;5.80;;;;;;;3.19;100.00;101967.75;5115217;28;20360;-36
2023/04/26 05:52:39;;;;;;;7.38;5.80;;;;;;;3.07;100.00;101950.28;5114932;28;20102;-36
2023/04/26 05:55:05;;;;;;;7.05;5.38;;;;;;;3.27;100.00;101964.28;5115440;28;20019;-36
2023/04/26 05:57:31;;;;;;;7.68;5.63;;;;;;;3.23;100.00;101966.44;5115048;28;20019;-36
2023/04/26 05:59:56;;;;;;;8.33;5.70;;;;;;;3.22;100.00;101948.75;5114777;28;20019;-36
2023/04/26 06:02:21;;;;;;;7.77;6.07;;;;;;;3.45;100.00;101972.28;5115437;28;20040;-36
2023/04/26 06:04:47;;;;;;;9.53;5.27;;;;;;;3.60;100.00;101962.69;5115323;28;20039;-36
2023/04/26 06:07:12;;;;;;;8.90;5.77;;;;;;;3.72;100.00;101966.78;5114923;28;20102;-36
2023/04/26 06:09:37;;;;;;;7.23;5.20;;;;;;;3.96;100.00;101962.56;5114455;28;20507;-36
2023/04/26 06:12:03;;;;;;;7.90;4.83;;;;;;;4.13;100.00;101973.16;5114815;28;20027;-36
2023/04/26 06:14:28;;;;;;;9.10;5.43;;;;;;;4.25;100.00;101965.69;5115092;28;20024;-36
2023/04/26 06:16:55;;;;;;;6.30;5.43;;;;;;;4.34;100.00;101964.72;5115573;28;20019;-36
2023/04/26 06:19:20;;;;;;;9.20;6.00;;;;;;;4.52;100.00;101966.41;5114683;28;20035;-36
2023/04/26 06:21:45;;;;;;;8.60;5.80;;;;;;;4.63;100.00;101969.63;5115218;28;20020;-36
2023/04/26 06:24:11;;;;;;;7.03;5.83;;;;;;;4.72;100.00;101965.13;5114661;28;20064;-36
2023/04/26 06:26:36;;;;;;;7.17;5.40;;;;;;;4.73;100.00;101966.78;5115452;28;20023;-36
2023/04/26 06:29:02;;;;;;;7.50;5.70;;;;;;;4.71;100.00;101973.34;5114496;28;20023;-36
2023/04/26 06:31:27;;;;;;;7.78;5.60;;;;;;;4.74;100.00;101957.78;5115077;28;20034;-36
2023/04/26 06:33:52;;;;;;;7.50;5.33;;;;;;;4.81;100.00;101965.97;5115264;28;20042;-36
2023/04/26 06:36:18;;;;;;;9.87;5.53;;;;;;;4.86;100.00;101980.56;5114457;28;20038;-36
2023/04/26 06:38:43;;;;;;;7.33;5.33;;;;;;;4.88;100.00;101983.91;5114382;28;20102;-36
2023/04/26 06:41:09;;;;;;;7.87;4.90;;;;;;;4.95;100.00;101981.41;5114113;27;20026;-36
2023/04/26 06:43:34;;;;;;;7.70;5.03;;;;;;;4.95;100.00;101984.09;5114312;28;20028;-36
2023/04/26 06:45:59;;;;;;;7.27;4.90;;;;;;;5.14;100.00;101994.47;5114291;28;20102;-36
2023/04/26 06:48:26;;;;;;;8.02;5.22;;;;;;;5.27;100.00;101993.13;5115074;28;20030;-36
2023/04/26 06:50:51;;;;;;;;;;;;;;;5.40;100.00;101994.31;5114951;28;20462;-36
2023/04/26 06:53:16;;;;;;;5.70;4.22;;;;;;;5.38;100.00;101992.81;5114419;28;19908;-36
2023/04/26 06:55:42;;;;;;;6.80;4.80;;;;;;;5.35;100.00;101983.25;5114788;28;20031;-37
2023/04/26 06:58:07;;;;;;;6.80;4.90;;;;;;;5.37;100.00;101980.41;5114393;28;20468;-37
2023/04/26 07:00:32;;;;;;;8.93;5.80;;;;;;;5.40;100.00;101972.84;5114142;28;20355;-36
2023/04/26 07:02:58;;;;;;;17.53;5.80;;;;;;;5.45;100.00;101988.44;5114970;28;20329;-36
2023/04/26 07:05:23;;;;;;;7.03;4.33;;;;;;;5.53;100.00;101990.28;5114366;28;20261;-36
2023/04/26 07:07:49;;;;;;;8.13;4.50;;;;;;;5.60;100.00;101994.78;5114124;28;20032;-37
2023/04/26 07:10:14;;;;;;;7.38;4.43;;;;;;;5.69;100.00;101992.94;5114609;28;20500;-37
2023/04/26 07:12:40;;;;;;;6.10;4.25;;;;;;;5.74;100.00;101993.25;5114260;28;20059;-36
2023/04/26 07:15:06;;;;;;;4.77;4.03;;;;;;;5.83;100.00;102002.13;5113822;28;20043;-37
2023/04/26 07:17:31;;;;;;;8.20;5.05;;;;;;;5.81;100.00;101994.25;5113625;28;20448;-36
2023/04/26 07:19:57;;;;;;;6.15;4.30;;;;;;;5.88;100.00;101995.22;5113560;28;20015;-36
2023/04/26 07:22:23;;;;;;;7.75;4.85;;;;;;;5.97;100.00;101993.41;5114464;28;20022;-36
2023/04/26 07:24:48;;;;;;;6.90;4.22;;;;;;;6.01;100.00;101994.72;5118344;28;20023;-36
2023/04/26 07:27:13;;;;;;;9.63;4.80;;;;;;;6.07;100.00;101993.19;5118609;28;20395;-36
2023/04/26 07:29:39;;;;;;;10.83;4.93;;;;;;;6.17;100.00;101991.97;5118501;28;20037;-37
2023/04/26 07:32:04;;;;;;;10.30;4.90;;;;;;;6.39;100.00;101984.16;5118267;27;20405;-36
2023/04/26 07:34:30;;;;;;;7.60;3.95;;;;;;;6.59;100.00;101987.25;5117900;28;20034;-37
2023/04/26 07:36:56;;;;;;;5.40;3.83;;;;;;;6.71;100.00;101978.59;5118685;28;20107;-37
2023/04/26 07:39:21;;;;;;;5.93;3.83;;;;;;;6.83;100.00;101981.72;5117771;28;20451;-36
2023/04/26 07:41:47;;;;;;;5.55;3.17;;;;;;;6.88;100.00;101979.34;5117716;28;20019;-37
2023/04/26 07:44:12;;;;;;;5.93;3.30;;;;;;;6.94;99.81;101986.69;5117433;28;20024;-37
2023/04/26 07:46:37;;;;;;;6.27;3.60;;;;;;;7.02;99.34;101985.78;5117541;28;20028;-36
2023/04/26 07:49:03;;;;;;;6.40;2.97;;;;;;;7.13;100.00;101984.53;5117314;28;20417;-34
2023/04/26 07:51:28;;;;;;;4.80;2.90;;;;;;;7.16;97.44;101989.53;5117376;28;20028;-34
2023/04/26 07:53:56;;;;;;;9.70;3.10;;;;;;;7.13;97.40;101987.22;5116372;28;20524;-34
2023/04/26 07:56:23;;;;;;;8.70;2.70;;;;;;;7.12;95.20;101982.84;5117515;28;20260;-37
2023/04/26 07:58:48;;;;;;;5.82;2.95;;;;;;;7.17;96.23;101983.13;5117409;28;20413;-36
2023/04/26 08:01:13;;;;;;;7.10;2.67;;;;;;;7.21;94.46;101979.91;5117628;28;20047;-37
2023/04/26 08:03:39;;;;;;;6.23;2.47;;;;;;;7.41;95.39;101993.69;5117090;28;20106;-34
2023/04/26 08:06:04;;;;;;;4.20;2.20;;;;;;;7.46;95.62;101995.81;5117595;28;20077;-34
2023/04/26 08:08:31;;;;;;;4.80;2.57;;;;;;;7.52;94.66;101999.69;5117453;28;20028;-34
2023/04/26 08:10:56;;;;;;;4.10;2.00;;;;;;;7.53;90.23;101995.97;5117438;28;20024;-35
2023/04/26 08:13:22;;;;;;;4.88;2.08;;;;;;;7.47;89.30;101989.44;5117581;28;20351;-35
2023/04/26 08:15:47;;;;;;;6.97;2.75;;;;;;;7.49;88.98;101993.63;5117356;28;20436;-34
2023/04/26 08:18:13;;;;;;;6.10;2.40;;;;;;;7.60;90.38;101994.19;5117016;28;20115;-35
2023/04/26 08:20:38;;;;;;;3.67;1.63;;;;;;;7.67;86.23;102011.31;5117193;28;20020;-35
2023/04/26 08:23:04;;;;;;;5.70;1.10;;;;;;;7.62;85.44;102000.25;5116610;28;20648;-35
2023/04/26 08:25:29;;;;;;;5.10;1.25;;;;;;;7.53;84.17;101995.97;5117742;28;20508;-35
2023/04/26 08:27:55;;;;;;;4.13;1.30;;;;;;;7.55;84.36;101994.75;5117352;28;20015;-35
2023/04/26 08:30:20;;;;;;;4.07;1.60;;;;;;;7.63;85.52;101996.53;5117105;28;20380;-35
2023/04/26 08:32:46;;;;;;;45.08;3.38;;;;;;;7.71;85.69;102001.81;5116187;28;20257;-35
2023/04/26 08:35:11;;;;;;;5.80;1.97;;;;;;;7.77;85.77;101995.72;5117468;28;20102;-34
2023/04/26 08:37:37;;;;;;;5.35;1.70;;;;;;;7.80;82.38;102000.72;5116664;28;20031;-35
2023/04/26 08:40:07;;;;;;;4.25;1.38;;;;;;;7.85;82.61;101998.28;5117147;27;20031;-34
2023/04/26 08:42:37;;;;;;;4.57;1.77;;;;;;;7.86;81.97;102000.00;5116526;28;20408;-35
2023/04/26 08:45:03;;;;;;;2.97;1.02;;;;;;;7.82;81.33;101984.38;5117052;28;20423;-34
2023/04/26 08:47:50;;;;;;;3.50;1.20;;;;;;;7.83;82.16;101994.97;5116986;28;20347;-35
2023/04/26 08:50:19;;;;;;;3.28;1.40;;;;;;;7.71;81.25;101989.22;5116738;28;20114;-35
2023/04/26 08:52:47;;;;;;;4.45;1.02;;;;;;;7.74;80.41;101990.69;5116333;28;20011;-36
2023/04/26 08:55:15;;;;;;;3.88;1.48;;;;;;;7.78;80.24;101992.00;5116113;28;20055;-36
2023/04/26 08:57:42;;;;;;;3.55;1.10;;;;;;;7.88;80.12;101983.63;5116795;28;20419;-36
2023/04/26 09:00:12;;;;;;;3.28;1.30;;;;;;;8.07;80.79;101979.56;5116980;28;20022;-36
2023/04/26 09:02:42;;;;;;;3.55;1.42;;;;;;;8.00;77.00;101985.69;5116222;28;20552;-36
2023/04/26 09:05:09;;;;;;;3.90;1.02;;;;;;;8.09;81.34;101994.50;5116167;28;20031;-35
2023/04/26 09:07:45;;;;;;;3.20;1.30;;;;;;;7.98;78.19;101986.88;5116796;28;20039;-35
2023/04/26 09:10:12;;;;;;;4.47;1.17;;;;;;;7.95;77.95;102000.72;5116291;28;20031;-35
2023/04/26 09:12:38;;;;;;;4.18;1.70;;;;;;;7.93;77.90;101990.13;5116477;28;20087;-35
2023/04/26 09:15:08;;;;;;;3.65;1.25;;;;;;;7.98;78.13;101981.50;5115908;28;20023;-36
2023/04/26 09:17:36;;;;;;;2.88;1.23;;;;;;;7.94;77.92;101980.19;5116412;28;20092;-36
2023/04/26 09:20:20;;;;;;;4.93;1.83;;;;;;;7.94;78.14;101977.50;5116352;28;20023;-36
2023/04/26 09:22:46;;;;;;;4.20;1.25;;;;;;;7.91;76.05;101972.50;5115500;28;20023;-36
2023/04/26 09:25:12;;;;;;;3.30;1.30;;;;;;;8.03;78.30;101984.47;5116407;28;20035;-36
2023/04/26 09:27:42;;;;;;;6.25;1.60;;;;;;;8.00;76.83;101980.31;5115617;28;20345;-36
2023/04/26 09:30:11;;;;;;;4.60;1.58;;;;;;;8.00;76.32;101980.31;5115375;28;20077;-35
2023/04/26 09:32:54;;;;;;;3.45;1.25;;;;;;;8.07;76.14;101975.00;5115271;28;20375;-35
2023/04/26 09:35:23;;;;;;;7.35;1.75;;;;;;;8.14;76.29;101975.06;5116414;28;20343;-36
2023/04/26 09:38:00;;;;;;;5.10;1.73;;;;;;;8.25;75.66;101969.22;5115371;28;20027;-35
2023/04/26 09:40:28;;;;;;;4.38;1.30;;;;;;;8.33;73.31;101982.59;5115145;28;20015;-36
2023/04/26 09:42:58;;;;;;;3.85;1.35;;;;;;;8.47;71.07;101992.53;5115915;28;20031;-36
2023/04/26 09:45:25;;;;;;;4.05;1.42;;;;;;;8.55;71.13;101990.78;5113834;28;20474;-35
2023/04/26 09:47:51;;;;;;;4.30;1.17;;;;;;;8.55;71.18;101985.38;5114939;28;20028;-36
2023/04/26 09:50:29;;;;;;;3.22;1.50;;;;;;;8.49;72.70;101984.25;5115522;28;20038;-36
2023/04/26 09:52:55;;;;;;;4.18;1.65;;;;;;;8.40;72.02;101986.25;5115402;28;20020;-35
2023/04/26 09:55:28;;;;;;;2.10;1.65;;;;;;;8.35;74.44;101990.50;5115136;28;20027;-36
2023/04/26 09:57:55;;;;;;;3.80;1.10;;;;;;;8.33;76.19;101982.59;5115051;28;20024;-35
2023/04/26 10:00:21;;;;;;;3.47;1.27;;;;;;;8.37;78.44;101981.22;5115545;28;20032;-35
2023/04/26 10:02:46;;;;;;;5.50;1.38;;;;;;;8.31;75.53;101976.56;5115049;28;20043;-36
2023/04/26 10:05:12;;;;;;;6.43;2.23;;;;;;;8.29;74.77;101981.28;5114957;28;20023;-36
2023/04/26 10:07:40;;;;;;;4.15;1.35;;;;;;;8.22;74.57;101972.28;5113656;28;20031;-36
2023/04/26 10:10:06;;;;;;;3.05;1.13;;;;;;;8.16;72.10;101975.75;5115697;28;20023;-36
2023/04/26 10:12:33;;;;;;;4.60;1.65;;;;;;;8.23;75.74;101979.34;5115279;28;20340;-35
2023/04/26 10:14:58;;;;;;;;;;;;;;;8.36;78.17;101982.25;5114021;28;20019;-36
2023/04/26 10:17:23;;;;;;;3.33;1.30;;;;;;;8.33;76.22;101984.44;5114976;28;19907;-36
2023/04/26 10:19:55;;;;;;;3.97;1.53;;;;;;;8.35;73.90;101990.50;5115007;28;20368;-36
2023/04/26 10:22:24;;;;;;;3.38;1.38;;;;;;;8.39;74.04;101979.16;5114623;28;20261;-35
2023/04/26 10:24:50;;;;;;;4.60;1.90;;;;;;;8.49;73.13;101989.63;5114369;28;20505;-35
2023/04/26 10:27:16;;;;;;;5.57;1.98;;;;;;;8.60;75.80;101988.34;5114844;28;20038;-36
2023/04/26 10:29:53;;;;;;;5.40;2.33;;;;;;;8.70;73.72;101983.47;5114729;28;20023;-36
2023/04/26 10:32:20;;;;;;;3.15;1.40;;;;;;;8.80;72.47;101967.81;5115340;28;20028;-35
2023/04/26 10:35:07;;;;;;;5.78;1.88;;;;;;;9.19;74.06;101972.75;5114432;28;20024;-36
2023/04/26 10:37:33;;;;;;;4.03;2.08;;;;;;;9.36;71.46;101965.19;5115241;28;20023;-36
2023/04/26 10:40:22;;;;;;;4.30;1.77;;;;;;;9.60;73.68;101965.78;5114303;28;20139;-36
2023/04/26 10:42:47;;;;;;;5.68;1.70;;;;;;;9.64;71.49;101958.97;5114534;28;20019;-36
2023/04/26 10:45:40;;;;;;;4.93;1.90;;;;;;;9.81;69.71;101963.03;5114381;28;20034;-36
2023/04/26 10:48:26;;;;;;;6.03;1.83;;;;;;;9.97;70.73;101959.16;5110962;28;20036;-36
2023/04/26 10:50:58;;;;;;;5.23;1.50;;;;;;;10.05;68.75;101943.63;5114802;28;20031;-36
2023/04/26 10:53:23;;;;;;;3.58;1.50;;;;;;;10.09;64.36;101957.56;5114164;28;20088;-36
2023/04/26 10:55:50;;;;;;;3.22;1.85;;;;;;;10.03;66.30;101944.84;5114686;28;20402;-36
2023/04/26 10:58:32;;;;;;;5.00;1.27;;;;;;;9.94;67.52;101946.03;5114114;28;20043;-36
2023/04/26 11:01:10;;;;;;;3.30;1.30;;;;;;;9.86;67.52;101954.31;5114651;28;20044;-36
2023/04/26 11:03:36;;;;;;;4.55;1.20;;;;;;;9.74;67.17;101962.16;5114920;28;20111;-36
2023/04/26 11:06:14;;;;;;;3.45;1.30;;;;;;;9.65;67.52;101957.94;5114653;28;20061;-35
2023/04/26 11:08:39;;;;;;;5.85;1.83;;;;;;;9.45;66.91;101957.78;5114057;28;20482;-36
2023/04/26 11:11:09;;;;;;;4.03;1.40;;;;;;;9.37;66.34;101961.47;5113840;28;20020;-36
2023/04/26 11:13:36;;;;;;;4.63;1.52;;;;;;;9.17;66.24;101946.97;5113955;28;20456;-36
2023/04/26 11:16:04;;;;;;;5.18;1.45;;;;;;;9.14;65.83;101955.47;5114271;28;20099;-36
2023/04/26 11:18:34;;;;;;;4.45;1.38;;;;;;;9.13;68.33;101937.63;5114768;28;20027;-36
2023/04/26 11:21:00;;;;;;;3.53;1.17;;;;;;;9.17;67.77;101949.66;5114451;28;20102;-36
2023/04/26 11:23:27;;;;;;;4.00;1.52;;;;;;;9.16;67.04;101951.53;5113650;28;20408;-36
2023/04/26 11:25:56;;;;;;;5.00;1.20;;;;;;;9.20;67.87;101942.03;5113888;28;20456;-36